Time;durP1;ratioP1;P1;durP2;ratioP2;P2;SDS_P1;SDS_P2;PMS_P1;PMS_P2;Temp;Humidity;BMP_temperature;BMP_pressure;BME280_temperature;BME280_humidity;BME280_pressure;Samples;Min_cycle;Max_cycle;Signal;HPM_P1;HPM_P2
2022/11/08 00:01:33;;;;;;;6.40;5.78;;;;;;;;;;5049220;28;20516;-87
2022/11/08 00:04:01;;;;;;;5.47;4.93;;;;;;;;;;5049600;28;20041;-87
2022/11/08 00:14:40;;;;;;;9.00;7.45;;;;;;;;;;5049569;28;20103;-87
2022/11/08 00:17:08;;;;;;;6.38;5.60;;;;;;;;;;5048899;28;20566;-86
2022/11/08 00:19:34;;;;;;;4.25;3.85;;;;;;;;;;5049471;28;20068;-86
2022/11/08 00:22:01;;;;;;;7.45;6.20;;;;;;;;;;5049348;28;20455;-86
2022/11/08 00:24:27;;;;;;;6.38;4.93;;;;;;;;;;5050875;28;20057;-86
2022/11/08 00:26:54;;;;;;;4.15;3.60;;;;;;;;;;5051940;28;20382;-86
2022/11/08 00:29:20;;;;;;;7.18;6.45;;;;;;;;;;5051890;28;20106;-87
2022/11/08 00:31:47;;;;;;;6.25;4.95;;;;;;;;;;5051803;28;20053;-87
2022/11/08 00:34:15;;;;;;;5.30;4.93;;;;;;;;;;5051680;28;20048;-86
2022/11/08 00:36:41;;;;;;;6.55;5.90;;;;;;;;;;5051871;28;20076;-86
2022/11/08 00:39:09;;;;;;;6.85;5.75;;;;;;;;;;5051713;28;20045;-87
2022/11/08 00:41:35;;;;;;;6.25;4.95;;;;;;;;;;5051916;28;20048;-86
2022/11/08 00:44:02;;;;;;;5.72;4.63;;;;;;;;;;5045469;28;20452;-86
2022/11/08 00:46:28;;;;;;;5.30;4.72;;;;;;;;;;5031111;28;20049;-86
2022/11/08 00:48:55;;;;;;;7.07;6.38;;;;;;;;;;5031571;28;20448;-86
2022/11/08 00:51:23;;;;;;;5.07;4.60;;;;;;;;;;5031606;28;20045;-86
2022/11/08 00:53:49;;;;;;;9.35;5.07;;;;;;;;;;5035693;28;20099;-86
2022/11/08 00:56:16;;;;;;;16.13;4.57;;;;;;;;;;5051649;28;20056;-86
2022/11/08 00:58:42;;;;;;;8.15;6.60;;;;;;;;;;5048982;28;20053;-86
2022/11/08 01:01:10;;;;;;;4.95;3.47;;;;;;;;;;5031458;28;20046;-86
2022/11/08 01:03:36;;;;;;;6.32;5.40;;;;;;;;;;5031560;28;20486;-86
2022/11/08 01:06:04;;;;;;;4.03;3.72;;;;;;;;;;5031477;28;20103;-86
2022/11/08 01:08:32;;;;;;;4.25;3.85;;;;;;;;;;5032354;28;20057;-87
2022/11/08 01:11:01;;;;;;;6.70;5.88;;;;;;;;;;5051164;28;20045;-86
2022/11/08 01:13:27;;;;;;;6.22;5.70;;;;;;;;;;5052825;28;20061;-86
2022/11/08 01:15:54;;;;;;;6.13;5.20;;;;;;;;;;5054627;28;20447;-86
2022/11/08 01:18:20;;;;;;;6.88;4.10;;;;;;;;;;5055136;28;20107;-86
2022/11/08 01:20:48;;;;;;;5.30;3.42;;;;;;;;;;5044611;28;20398;-86
2022/11/08 01:23:15;;;;;;;5.43;4.40;;;;;;;;;;5035196;28;20057;-86
2022/11/08 01:25:43;;;;;;;6.45;4.72;;;;;;;;;;5052812;28;20053;-86
2022/11/08 01:28:10;;;;;;;4.00;3.70;;;;;;;;;;5055014;28;20053;-86
2022/11/08 01:30:37;;;;;;;7.88;6.13;;;;;;;;;;5038135;28;20054;-86
2022/11/08 01:33:04;;;;;;;5.63;5.13;;;;;;;;;;5034864;28;20099;-86
2022/11/08 01:35:31;;;;;;;5.82;4.53;;;;;;;;;;5050564;28;20558;-86
2022/11/08 01:37:57;;;;;;;6.05;5.28;;;;;;;;;;5054765;28;20056;-86
2022/11/08 01:40:24;;;;;;;9.15;5.07;;;;;;;;;;5040335;28;20053;-86
2022/11/08 01:42:52;;;;;;;7.40;4.18;;;;;;;;;;5034952;28;20049;-86
2022/11/08 01:45:33;;;;;;;5.03;3.92;;;;;;;;;;5034894;28;20053;-86
2022/11/08 01:48:00;;;;;;;4.72;4.30;;;;;;;;;;5034521;28;20119;-86
2022/11/08 01:50:27;;;;;;;4.32;3.80;;;;;;;;;;5048912;28;20070;-86
2022/11/08 01:52:55;;;;;;;6.22;3.20;;;;;;;;;;5054341;28;20057;-86
2022/11/08 01:55:23;;;;;;;5.05;4.60;;;;;;;;;;5041377;28;20053;-86
2022/11/08 01:57:51;;;;;;;8.63;5.75;;;;;;;;;;5034504;28;20162;-86
2022/11/08 02:00:19;;;;;;;5.82;5.25;;;;;;;;;;5046750;28;20057;-86
2022/11/08 02:02:49;;;;;;;6.65;5.45;;;;;;;;;;5054331;28;20443;-86
2022/11/08 02:05:26;;;;;;;8.10;5.45;;;;;;;;;;5054020;28;20049;-86
2022/11/08 02:07:58;;;;;;;5.20;3.13;;;;;;;;;;5054213;28;20045;-86
2022/11/08 02:10:28;;;;;;;5.07;4.18;;;;;;;;;;5054011;28;20049;-86
2022/11/08 02:12:56;;;;;;;4.90;4.43;;;;;;;;;;5054065;28;20049;-86
2022/11/08 02:15:25;;;;;;;3.75;3.28;;;;;;;;;;5054076;28;20102;-86
2022/11/08 02:17:51;;;;;;;2.38;2.22;;;;;;;;;;5053505;28;20045;-87
2022/11/08 02:20:18;;;;;;;5.15;4.55;;;;;;;;;;5053488;28;20104;-86
2022/11/08 02:22:47;;;;;;;9.60;5.20;;;;;;;;;;5053858;28;20572;-86
2022/11/08 02:25:15;;;;;;;5.32;3.88;;;;;;;;;;5053250;28;20451;-86
2022/11/08 02:27:42;;;;;;;4.78;4.38;;;;;;;;;;5053807;28;20106;-86
2022/11/08 02:30:09;;;;;;;3.13;2.92;;;;;;;;;;5053839;28;20111;-86
2022/11/08 02:32:38;;;;;;;4.80;4.25;;;;;;;;;;5053892;28;20107;-86
2022/11/08 02:35:06;;;;;;;4.75;4.32;;;;;;;;;;5053422;28;20053;-85
2022/11/08 02:37:33;;;;;;;4.88;4.45;;;;;;;;;;5053795;28;20052;-86
2022/11/08 02:39:59;;;;;;;4.47;3.78;;;;;;;;;;5053254;28;20099;-86
2022/11/08 02:42:27;;;;;;;3.70;3.47;;;;;;;;;;5053549;28;20053;-86
2022/11/08 02:44:53;;;;;;;3.50;3.20;;;;;;;;;;5047171;28;20041;-85
2022/11/08 02:47:20;;;;;;;6.63;6.13;;;;;;;;;;5032939;28;20096;-86
2022/11/08 02:49:46;;;;;;;4.47;4.07;;;;;;;;;;5033427;28;20486;-86
2022/11/08 02:52:13;;;;;;;6.80;4.75;;;;;;;;;;5033414;28;20053;-86
2022/11/08 02:54:39;;;;;;;11.57;5.90;;;;;;;;;;5033292;28;20586;-86
2022/11/08 02:57:06;;;;;;;4.60;3.90;;;;;;;;;;5033370;28;20061;-86
2022/11/08 02:59:34;;;;;;;5.93;4.88;;;;;;;;;;5033247;28;20053;-86
2022/11/08 03:02:00;;;;;;;3.72;3.42;;;;;;;;;;5033343;28;20053;-86
2022/11/08 03:04:27;;;;;;;10.02;6.60;;;;;;;;;;5033209;28;20111;-86
2022/11/08 03:06:53;;;;;;;4.80;4.50;;;;;;;;;;5033122;28;20054;-86
2022/11/08 03:09:20;;;;;;;6.72;5.95;;;;;;;;;;5033184;28;20049;-87
2022/11/08 03:11:46;;;;;;;9.00;5.82;;;;;;;;;;5032986;28;20099;-86
2022/11/08 03:14:13;;;;;;;5.20;4.70;;;;;;;;;;5033247;28;20053;-86
2022/11/08 03:16:41;;;;;;;3.22;3.00;;;;;;;;;;5032444;28;20045;-86
2022/11/08 03:19:07;;;;;;;6.15;5.65;;;;;;;;;;5032737;28;20049;-86
2022/11/08 03:21:34;;;;;;;4.60;4.20;;;;;;;;;;5032810;28;20332;-86
2022/11/08 03:24:01;;;;;;;5.40;4.88;;;;;;;;;;5032827;28;20046;-86
2022/11/08 03:26:27;;;;;;;4.45;4.05;;;;;;;;;;5033002;28;20109;-86
2022/11/08 03:28:55;;;;;;;4.53;4.07;;;;;;;;;;5032736;28;20441;-86
2022/11/08 03:31:21;;;;;;;5.32;4.85;;;;;;;;;;5032823;28;20091;-86
2022/11/08 03:33:49;;;;;;;4.72;4.28;;;;;;;;;;5032692;28;20567;-86
2022/11/08 03:36:15;;;;;;;5.95;5.47;;;;;;;;;;5031904;28;20559;-86
2022/11/08 03:38:42;;;;;;;4.25;3.95;;;;;;;;;;5032516;28;20083;-86
2022/11/08 03:41:08;;;;;;;6.75;4.57;;;;;;;;;;5032349;28;20084;-86
2022/11/08 03:43:35;;;;;;;5.88;5.20;;;;;;;;;;5032772;28;20119;-86
2022/11/08 03:46:01;;;;;;;5.97;5.43;;;;;;;;;;5031586;28;20049;-86
2022/11/08 03:48:28;;;;;;;4.65;4.28;;;;;;;;;;5032434;28;20057;-86
2022/11/08 03:50:56;;;;;;;5.80;4.13;;;;;;;;;;5032280;28;20042;-86
2022/11/08 03:53:22;;;;;;;6.63;3.42;;;;;;;;;;5032360;28;20046;-86
2022/11/08 03:55:49;;;;;;;5.40;4.90;;;;;;;;;;5032454;28;20046;-86
2022/11/08 03:58:15;;;;;;;7.68;4.22;;;;;;;;;;5032194;28;20053;-86
2022/11/08 04:00:41;;;;;;;4.70;4.40;;;;;;;;;;5032119;28;20401;-86
2022/11/08 04:03:09;;;;;;;3.78;3.47;;;;;;;;;;5032229;28;20107;-86
2022/11/08 04:05:35;;;;;;;8.73;3.00;;;;;;;;;;5032184;28;20053;-86
2022/11/08 04:08:04;;;;;;;5.18;4.68;;;;;;;;;;5032244;28;20115;-86
2022/11/08 04:10:31;;;;;;;7.28;5.28;;;;;;;;;;5032099;28;20428;-86
2022/11/08 04:15:43;;;;;;;4.43;4.05;;;;;;;;;;5032024;28;20136;-86
2022/11/08 04:23:38;;;;;;;4.82;3.22;;;;;;;;;;5032199;28;20056;-85
2022/11/08 04:26:06;;;;;;;4.15;3.35;;;;;;;;;;5043166;28;20110;-86
2022/11/08 04:28:33;;;;;;;4.07;2.60;;;;;;;;;;5051833;28;20052;-86
2022/11/08 04:31:01;;;;;;;3.35;3.13;;;;;;;;;;5051330;28;20106;-85
2022/11/08 04:33:28;;;;;;;3.58;3.33;;;;;;;;;;5051693;28;20056;-86
2022/11/08 04:35:54;;;;;;;3.75;3.13;;;;;;;;;;5051477;28;20045;-85
2022/11/08 04:38:21;;;;;;;5.47;4.32;;;;;;;;;;5051679;28;20057;-86
2022/11/08 04:40:49;;;;;;;8.88;3.80;;;;;;;;;;5051351;28;20045;-86
2022/11/08 04:43:15;;;;;;;3.55;3.25;;;;;;;;;;5051586;28;20045;-86
2022/11/08 04:45:42;;;;;;;6.05;5.55;;;;;;;;;;5044900;28;20045;-86
2022/11/08 04:48:09;;;;;;;8.50;2.95;;;;;;;;;;5034122;28;20049;-86
2022/11/08 04:50:36;;;;;;;3.08;2.88;;;;;;;;;;5035680;28;20779;-85
2022/11/08 04:53:02;;;;;;;5.35;4.95;;;;;;;;;;5035827;28;20045;-86
2022/11/08 04:55:29;;;;;;;5.03;4.30;;;;;;;;;;5035533;28;20041;-86
2022/11/08 04:57:58;;;;;;;3.65;3.42;;;;;;;;;;5035540;28;20057;-86
2022/11/08 05:00:25;;;;;;;3.78;2.50;;;;;;;;;;5035648;28;20128;-86
2022/11/08 05:02:52;;;;;;;2.33;2.17;;;;;;;;;;5035701;28;20049;-86
2022/11/08 05:05:18;;;;;;;5.50;4.95;;;;;;;;;;5035515;28;20064;-86
2022/11/08 05:07:45;;;;;;;3.92;3.58;;;;;;;;;;5035574;28;20108;-86
2022/11/08 05:10:11;;;;;;;5.30;4.78;;;;;;;;;;5036294;28;20099;-86
2022/11/08 05:12:38;;;;;;;4.68;4.22;;;;;;;;;;5055266;28;20460;-86
2022/11/08 05:15:07;;;;;;;5.93;3.45;;;;;;;;;;5055317;28;20053;-86
2022/11/08 05:17:33;;;;;;;4.38;4.07;;;;;;;;;;5055094;28;20099;-87
2022/11/08 05:25:27;;;;;;;6.15;5.10;;;;;;;;;;5055153;28;20056;-86
2022/11/08 05:27:54;;;;;;;3.42;3.15;;;;;;;;;;5055254;28;20045;-86
2022/11/08 05:30:22;;;;;;;4.65;4.22;;;;;;;;;;5054714;28;20463;-86
2022/11/08 05:32:50;;;;;;;4.63;4.22;;;;;;;;;;5055193;28;20485;-86
2022/11/08 05:35:17;;;;;;;8.70;4.45;;;;;;;;;;5054446;28;20049;-86
2022/11/08 05:37:44;;;;;;;3.72;3.22;;;;;;;;;;5034862;28;20076;-86
2022/11/08 05:40:11;;;;;;;3.88;3.38;;;;;;;;;;5033375;28;20060;-87
2022/11/08 05:42:37;;;;;;;5.03;4.57;;;;;;;;;;5034733;28;20100;-86
2022/11/08 05:45:04;;;;;;;4.05;3.63;;;;;;;;;;5034609;28;20045;-85
2022/11/08 05:47:32;;;;;;;4.45;4.10;;;;;;;;;;5052620;28;20061;-86
2022/11/08 05:49:58;;;;;;;5.15;4.65;;;;;;;;;;5054591;28;20053;-86
2022/11/08 05:52:25;;;;;;;4.88;4.47;;;;;;;;;;5054260;28;20155;-86
2022/11/08 05:54:52;;;;;;;5.47;5.07;;;;;;;;;;5054442;28;20053;-86
2022/11/08 05:57:18;;;;;;;6.10;5.60;;;;;;;;;;5054410;28;20055;-86
2022/11/08 05:59:45;;;;;;;5.80;3.60;;;;;;;;;;5053788;28;20455;-86
2022/11/08 06:02:11;;;;;;;7.25;6.22;;;;;;;;;;5039328;28;20041;-85
2022/11/08 06:04:39;;;;;;;5.63;5.13;;;;;;;;;;5034385;28;20045;-85
2022/11/08 06:07:06;;;;;;;4.43;3.67;;;;;;;;;;5034124;28;20109;-85
2022/11/08 06:09:32;;;;;;;6.72;5.45;;;;;;;;;;5034317;28;20096;-85
2022/11/08 06:11:58;;;;;;;3.13;2.90;;;;;;;;;;5034542;28;20049;-88
2022/11/08 06:14:25;;;;;;;4.97;4.15;;;;;;;;;;5034131;28;20779;-85
2022/11/08 06:16:51;;;;;;;7.68;6.10;;;;;;;;;;5033476;28;20053;-85
2022/11/08 06:19:18;;;;;;;6.90;6.30;;;;;;;;;;5033303;28;20481;-85
2022/11/08 06:21:46;;;;;;;6.18;5.68;;;;;;;;;;5043627;28;20052;-85
2022/11/08 06:24:14;;;;;;;3.65;3.35;;;;;;;;;;5034469;28;20049;-85
2022/11/08 06:26:41;;;;;;;5.28;4.78;;;;;;;;;;5033857;28;20065;-85
2022/11/08 06:29:07;;;;;;;5.18;4.78;;;;;;;;;;5033641;28;20049;-85
2022/11/08 06:31:34;;;;;;;7.45;6.82;;;;;;;;;;5032508;28;20107;-86
2022/11/08 06:34:01;;;;;;;6.75;6.13;;;;;;;;;;5032905;28;20076;-87
2022/11/08 06:36:27;;;;;;;6.60;6.00;;;;;;;;;;5033229;28;20100;-86
2022/11/08 06:38:55;;;;;;;8.30;6.15;;;;;;;;;;5032941;28;20099;-85
2022/11/08 06:41:22;;;;;;;8.80;8.05;;;;;;;;;;5032981;28;20115;-86
2022/11/08 06:43:49;;;;;;;7.93;6.65;;;;;;;;;;5032456;28;20596;-86
2022/11/08 06:46:15;;;;;;;8.77;7.93;;;;;;;;;;5033078;28;20057;-86
2022/11/08 06:48:42;;;;;;;7.50;6.80;;;;;;;;;;5032897;28;20053;-86
2022/11/08 06:51:08;;;;;;;8.57;6.43;;;;;;;;;;5035678;28;20760;-87
2022/11/08 06:53:35;;;;;;;7.65;6.82;;;;;;;;;;5052025;28;20079;-86
2022/11/08 06:56:03;;;;;;;6.07;5.43;;;;;;;;;;5052751;28;20049;-86
2022/11/08 06:58:30;;;;;;;9.98;6.20;;;;;;;;;;5052878;28;20098;-86
2022/11/08 07:00:56;;;;;;;10.30;5.07;;;;;;;;;;5051774;28;20095;-86
2022/11/08 07:03:23;;;;;;;10.75;7.43;;;;;;;;;;5052043;28;20098;-87
2022/11/08 07:05:49;;;;;;;4.68;4.28;;;;;;;;;;5052348;28;20485;-87
2022/11/08 07:08:16;;;;;;;5.95;5.40;;;;;;;;;;5012599;28;20057;-87
2022/11/08 07:10:43;;;;;;;9.32;7.45;;;;;;;;;;5012201;28;20057;-86
2022/11/08 07:13:12;;;;;;;6.53;4.63;;;;;;;;;;5031954;28;20076;-86
2022/11/08 07:15:39;;;;;;;7.15;6.45;;;;;;;;;;5033271;28;20453;-87
2022/11/08 07:18:06;;;;;;;8.20;7.45;;;;;;;;;;5032897;28;20473;-86
2022/11/08 07:20:33;;;;;;;7.35;6.45;;;;;;;;;;5032423;28;20539;-86
2022/11/08 07:23:00;;;;;;;7.43;6.53;;;;;;;;;;5032033;28;20531;-86
2022/11/08 07:25:27;;;;;;;11.63;8.80;;;;;;;;;;5032305;28;20457;-86
2022/11/08 07:27:54;;;;;;;7.38;6.72;;;;;;;;;;5032594;28;20049;-86
2022/11/08 07:30:22;;;;;;;7.88;5.15;;;;;;;;;;5032555;28;20065;-87
2022/11/08 07:32:49;;;;;;;6.45;5.93;;;;;;;;;;5032515;28;20053;-87
2022/11/08 07:35:15;;;;;;;8.48;7.70;;;;;;;;;;5032689;28;20053;-87
2022/11/08 07:37:42;;;;;;;8.20;6.72;;;;;;;;;;5032525;28;20084;-87
2022/11/08 07:40:09;;;;;;;9.13;6.70;;;;;;;;;;5032736;28;20175;-87
2022/11/08 07:42:36;;;;;;;5.00;4.60;;;;;;;;;;5032417;28;20477;-87
2022/11/08 07:45:03;;;;;;;10.18;7.28;;;;;;;;;;5032466;28;20468;-87
2022/11/08 07:47:31;;;;;;;9.32;6.45;;;;;;;;;;5040436;28;20049;-88
2022/11/08 07:49:57;;;;;;;8.07;6.63;;;;;;;;;;5052358;28;20049;-88
2022/11/08 07:52:24;;;;;;;8.65;5.60;;;;;;;;;;5051914;28;20107;-87
2022/11/08 07:54:50;;;;;;;8.77;8.02;;;;;;;;;;5051808;28;20049;-87
2022/11/08 07:57:17;;;;;;;11.23;8.32;;;;;;;;;;5051816;28;20204;-87
2022/11/08 07:59:43;;;;;;;10.98;7.93;;;;;;;;;;5052195;28;20086;-88
2022/11/08 08:02:10;;;;;;;14.15;7.20;;;;;;;;;;5051552;28;20398;-88
2022/11/08 08:04:38;;;;;;;9.80;8.90;;;;;;;;;;5052148;28;20471;-88
2022/11/08 08:07:05;;;;;;;10.52;6.38;;;;;;;;;;5051709;28;20053;-88
2022/11/08 08:09:33;;;;;;;8.52;7.82;;;;;;;;;;5051936;28;20057;-88
2022/11/08 08:11:59;;;;;;;13.00;8.63;;;;;;;;;;5051503;28;20049;-88
2022/11/08 08:14:26;;;;;;;9.20;8.25;;;;;;;;;;5051678;28;20102;-88
2022/11/08 08:16:52;;;;;;;8.30;7.32;;;;;;;;;;5051379;28;20045;-88
2022/11/08 08:19:19;;;;;;;7.05;6.45;;;;;;;;;;5051882;28;20492;-87
2022/11/08 08:21:47;;;;;;;7.20;6.50;;;;;;;;;;5051135;28;20045;-87
2022/11/08 08:24:13;;;;;;;6.90;5.88;;;;;;;;;;5051382;28;20099;-88
2022/11/08 08:26:40;;;;;;;11.60;9.93;;;;;;;;;;5051359;28;20547;-88
2022/11/08 08:29:06;;;;;;;12.00;9.07;;;;;;;;;;5051654;28;20049;-88
2022/11/08 08:31:33;;;;;;;10.20;7.25;;;;;;;;;;5051156;28;20488;-87
2022/11/08 08:33:59;;;;;;;5.55;5.18;;;;;;;;;;5051944;28;20045;-87
2022/11/08 08:36:26;;;;;;;10.55;9.55;;;;;;;;;;5051492;28;20053;-87
2022/11/08 08:38:54;;;;;;;8.88;6.78;;;;;;;;;;5011988;28;20054;-87
2022/11/08 08:41:20;;;;;;;9.52;8.65;;;;;;;;;;5012063;28;20112;-88
2022/11/08 08:43:47;;;;;;;12.75;11.65;;;;;;;;;;5030638;28;20490;-88
2022/11/08 08:46:13;;;;;;;11.48;8.52;;;;;;;;;;5031315;28;20054;-87
2022/11/08 08:48:40;;;;;;;8.27;7.47;;;;;;;;;;5031295;28;20698;-87
2022/11/08 08:51:06;;;;;;;7.88;7.00;;;;;;;;;;5031700;28;20095;-87
2022/11/08 08:53:33;;;;;;;10.88;8.95;;;;;;;;;;5031510;28;20124;-87
2022/11/08 08:56:04;;;;;;;6.63;5.85;;;;;;;;;;5031218;28;20050;-87
2022/11/08 08:58:30;;;;;;;;;;;;;;;;;;5031825;28;20053;-87
2022/11/08 09:01:00;;;;;;;12.05;8.88;;;;;;;;;;5030948;28;20443;-87
2022/11/08 09:03:26;;;;;;;10.05;8.80;;;;;;;;;;5031471;28;20053;-87
2022/11/08 09:05:53;;;;;;;12.48;7.85;;;;;;;;;;5031416;28;20045;-87
2022/11/08 09:08:19;;;;;;;7.38;6.75;;;;;;;;;;5031471;28;20452;-87
2022/11/08 09:10:46;;;;;;;14.40;7.72;;;;;;;;;;5031600;28;20049;-87
2022/11/08 09:13:13;;;;;;;10.65;7.50;;;;;;;;;;5031250;28;20050;-87
2022/11/08 09:15:40;;;;;;;8.23;7.40;;;;;;;;;;5031010;28;20053;-87
2022/11/08 09:18:08;;;;;;;10.27;9.25;;;;;;;;;;5031172;28;20489;-87
2022/11/08 09:20:34;;;;;;;10.50;9.70;;;;;;;;;;5031225;28;20064;-87
2022/11/08 09:23:01;;;;;;;9.27;6.65;;;;;;;;;;5030867;28;20103;-87
2022/11/08 09:25:28;;;;;;;9.90;7.70;;;;;;;;;;5030968;28;20136;-87
2022/11/08 09:27:54;;;;;;;8.23;7.43;;;;;;;;;;5031545;28;20054;-87
2022/11/08 09:30:23;;;;;;;11.10;10.02;;;;;;;;;;5031147;28;20548;-87
2022/11/08 09:32:52;;;;;;;8.65;7.93;;;;;;;;;;5030988;28;20084;-87
2022/11/08 09:35:18;;;;;;;10.70;8.10;;;;;;;;;;5033589;28;20095;-87
2022/11/08 09:37:45;;;;;;;14.13;12.32;;;;;;;;;;5034990;28;20087;-87
2022/11/08 09:40:15;;;;;;;13.60;8.98;;;;;;;;;;5034391;28;20045;-87
2022/11/08 09:42:49;;;;;;;9.10;8.13;;;;;;;;;;5034532;28;20555;-87
2022/11/08 09:45:20;;;;;;;11.98;9.15;;;;;;;;;;5034335;28;20053;-86
2022/11/08 09:47:49;;;;;;;8.73;7.80;;;;;;;;;;5034709;28;20046;-86
2022/11/08 09:50:19;;;;;;;14.38;8.60;;;;;;;;;;5034670;28;20057;-87
2022/11/08 09:52:47;;;;;;;11.95;9.63;;;;;;;;;;5034407;28;20057;-87
2022/11/08 09:55:17;;;;;;;15.27;9.70;;;;;;;;;;5034249;28;20053;-87
2022/11/08 09:57:44;;;;;;;;;;;;;;;;;;5034875;28;20053;-87
2022/11/08 10:00:12;;;;;;;11.52;8.00;;;;;;;;;;5033871;28;20460;-86
2022/11/08 10:02:39;;;;;;;9.00;7.13;;;;;;;;;;5034209;28;20049;-87
2022/11/08 10:05:09;;;;;;;12.07;8.70;;;;;;;;;;5034160;28;20053;-87
2022/11/08 10:07:40;;;;;;;9.90;8.90;;;;;;;;;;5034069;28;20080;-86
2022/11/08 10:10:23;;;;;;;12.23;10.60;;;;;;;;;;5033824;28;20049;-87
2022/11/08 10:12:52;;;;;;;11.80;10.00;;;;;;;;;;5034226;28;20050;-87
2022/11/08 10:15:23;;;;;;;13.35;10.40;;;;;;;;;;5034002;28;20053;-87
2022/11/08 10:18:06;;;;;;;9.77;8.77;;;;;;;;;;5033795;28;20505;-87
2022/11/08 10:20:38;;;;;;;14.40;11.50;;;;;;;;;;5034111;28;20061;-87
2022/11/08 10:23:10;;;;;;;18.63;9.90;;;;;;;;;;5033663;28;20497;-87
2022/11/08 10:25:38;;;;;;;6.10;5.32;;;;;;;;;;5034038;28;20107;-87
2022/11/08 10:28:06;;;;;;;9.95;8.73;;;;;;;;;;5033827;28;20053;-87
2022/11/08 10:30:34;;;;;;;15.45;10.93;;;;;;;;;;5033323;28;20061;-87
2022/11/08 10:33:00;;;;;;;8.75;7.93;;;;;;;;;;5033776;28;20049;-87
2022/11/08 10:35:30;;;;;;;11.32;10.27;;;;;;;;;;5033881;28;20394;-87
2022/11/08 10:37:59;;;;;;;10.90;9.80;;;;;;;;;;5038973;28;20554;-87
2022/11/08 10:40:31;;;;;;;14.10;11.25;;;;;;;;;;5053446;28;20057;-87
2022/11/08 10:43:01;;;;;;;9.30;8.68;;;;;;;;;;5053323;28;20048;-87
2022/11/08 10:45:28;;;;;;;14.82;12.15;;;;;;;;;;5052906;28;20088;-87
2022/11/08 10:47:54;;;;;;;11.65;10.43;;;;;;;;;;5053357;28;20091;-87
2022/11/08 10:50:28;;;;;;;10.13;8.68;;;;;;;;;;5053663;28;20095;-87
2022/11/08 10:52:57;;;;;;;21.02;12.07;;;;;;;;;;5053253;28;20466;-87
2022/11/08 10:55:27;;;;;;;12.25;10.77;;;;;;;;;;5043006;28;20050;-87
2022/11/08 10:57:53;;;;;;;7.47;6.78;;;;;;;;;;5033141;28;20057;-87
2022/11/08 11:00:28;;;;;;;10.65;9.23;;;;;;;;;;5033041;28;20049;-87
2022/11/08 11:02:55;;;;;;;12.60;9.10;;;;;;;;;;5036920;28;20049;-87
2022/11/08 11:05:32;;;;;;;11.20;10.23;;;;;;;;;;5052735;28;20045;-87
2022/11/08 11:08:03;;;;;;;10.00;9.10;;;;;;;;;;5052742;28;20103;-87
2022/11/08 11:10:33;;;;;;;13.88;12.48;;;;;;;;;;5053037;28;20452;-87
2022/11/08 11:13:04;;;;;;;10.40;8.95;;;;;;;;;;5052992;28;20106;-87
2022/11/08 11:15:32;;;;;;;16.55;12.93;;;;;;;;;;5055031;28;20056;-86
2022/11/08 11:17:58;;;;;;;12.88;11.68;;;;;;;;;;5052931;28;20049;-87
2022/11/08 11:20:25;;;;;;;13.02;10.60;;;;;;;;;;5052606;28;20479;-88
2022/11/08 11:22:52;;;;;;;10.80;9.77;;;;;;;;;;5059382;28;20087;-87
2022/11/08 11:25:20;;;;;;;12.30;10.85;;;;;;;;;;5057521;28;20136;-87
2022/11/08 11:27:52;;;;;;;11.75;10.50;;;;;;;;;;5051221;28;20053;-87
2022/11/08 11:30:30;;;;;;;18.42;10.43;;;;;;;;;;5032684;28;20057;-87
2022/11/08 11:32:58;;;;;;;11.73;10.65;;;;;;;;;;5032773;28;20142;-87
2022/11/08 11:35:25;;;;;;;15.38;9.75;;;;;;;;;;5032418;28;20111;-87
2022/11/08 11:37:52;;;;;;;16.65;10.82;;;;;;;;;;5032078;28;20504;-87
2022/11/08 11:40:23;;;;;;;16.30;11.68;;;;;;;;;;5032306;28;20921;-87
2022/11/08 11:42:54;;;;;;;11.60;9.00;;;;;;;;;;5032112;28;20049;-87
2022/11/08 11:45:23;;;;;;;13.35;12.02;;;;;;;;;;5032203;28;20110;-87
2022/11/08 11:47:52;;;;;;;11.35;10.20;;;;;;;;;;5032365;28;20050;-87
2022/11/08 11:50:26;;;;;;;9.95;8.95;;;;;;;;;;5032202;28;20520;-87
2022/11/08 11:52:54;;;;;;;11.82;10.75;;;;;;;;;;5032177;28;20046;-87
2022/11/08 11:55:23;;;;;;;16.48;10.10;;;;;;;;;;5032238;28;20061;-87
2022/11/08 11:58:00;;;;;;;13.80;8.77;;;;;;;;;;5031202;28;20512;-87
2022/11/08 12:00:26;;;;;;;11.52;9.55;;;;;;;;;;5031941;28;20053;-87
2022/11/08 12:03:07;;;;;;;9.75;8.43;;;;;;;;;;5032252;28;20466;-87
2022/11/08 12:05:49;;;;;;;8.43;7.70;;;;;;;;;;5031825;28;20155;-88
2022/11/08 12:08:30;;;;;;;9.75;6.97;;;;;;;;;;5035344;28;20077;-87
2022/11/08 12:11:03;;;;;;;12.00;9.05;;;;;;;;;;5051758;28;20053;-88
2022/11/08 12:13:36;;;;;;;13.77;10.98;;;;;;;;;;5051331;28;20508;-88
2022/11/08 12:16:06;;;;;;;11.57;10.57;;;;;;;;;;5051927;28;20402;-88
2022/11/08 12:18:32;;;;;;;;;;;;;;;;;;5052008;28;20049;-87
2022/11/08 12:21:03;;;;;;;9.68;8.70;;;;;;;;;;5051307;28;20011;-87
2022/11/08 12:23:46;;;;;;;9.77;8.98;;;;;;;;;;5047003;28;20060;-88
2022/11/08 12:26:12;;;;;;;;;;;;;;;;;;5023977;28;20045;-87
2022/11/08 12:28:51;;;;;;;6.72;6.15;;;;;;;;;;5031513;28;19971;-88
2022/11/08 12:31:24;;;;;;;11.40;8.55;;;;;;;;;;5031874;28;20100;-88
2022/11/08 12:33:57;;;;;;;9.52;8.60;;;;;;;;;;5031846;28;20053;-89
2022/11/08 12:36:30;;;;;;;9.68;8.77;;;;;;;;;;5031784;28;20045;-88
2022/11/08 12:39:00;;;;;;;10.10;9.13;;;;;;;;;;5031436;28;20091;-88
2022/11/08 12:41:33;;;;;;;11.45;8.32;;;;;;;;;;5032189;28;20417;-88
2022/11/08 12:44:18;;;;;;;9.18;7.85;;;;;;;;;;5031263;28;20456;-88
2022/11/08 12:46:50;;;;;;;11.80;11.00;;;;;;;;;;5031542;28;20049;-88
2022/11/08 12:49:22;;;;;;;8.48;7.85;;;;;;;;;;5031429;28;20559;-88
2022/11/08 12:51:59;;;;;;;9.48;8.63;;;;;;;;;;5031640;28;20049;-88
2022/11/08 12:54:25;;;;;;;;;;;;;;;;;;5031794;28;20095;-88
2022/11/08 12:56:53;;;;;;;14.00;7.45;;;;;;;;;;5031455;28;20036;-89
2022/11/08 12:59:22;;;;;;;9.15;8.38;;;;;;;;;;5031426;28;20114;-88
2022/11/08 13:01:49;;;;;;;7.70;7.03;;;;;;;;;;5031615;28;20507;-88
2022/11/08 13:04:25;;;;;;;11.15;10.27;;;;;;;;;;5040234;28;20072;-88
2022/11/08 13:06:55;;;;;;;10.23;9.45;;;;;;;;;;5051197;28;20547;-88
2022/11/08 13:09:26;;;;;;;12.18;9.13;;;;;;;;;;5042679;28;20107;-88
2022/11/08 13:12:00;;;;;;;10.90;9.43;;;;;;;;;;5035381;28;20049;-88
2022/11/08 13:14:28;;;;;;;10.25;9.25;;;;;;;;;;5044805;28;20049;-88
2022/11/08 13:17:14;;;;;;;14.52;10.93;;;;;;;;;;5055037;28;20052;-88
2022/11/08 13:19:58;;;;;;;13.10;8.05;;;;;;;;;;5053642;28;20061;-88
2022/11/08 13:22:58;;;;;;;11.18;9.95;;;;;;;;;;5035316;28;20053;-88
2022/11/08 13:25:33;;;;;;;8.45;7.72;;;;;;;;;;5009686;28;20125;-88
2022/11/08 13:27:59;;;;;;;12.75;8.95;;;;;;;;;;5012601;28;20053;-88
2022/11/08 13:30:33;;;;;;;10.57;9.32;;;;;;;;;;4996214;28;20054;-88
2022/11/08 13:33:03;;;;;;;11.77;10.82;;;;;;;;;;4993200;28;20053;-88
2022/11/08 13:35:32;;;;;;;11.48;10.57;;;;;;;;;;4992949;28;20085;-88
2022/11/08 13:38:06;;;;;;;13.00;10.80;;;;;;;;;;4992783;28;20050;-88
2022/11/08 13:40:42;;;;;;;10.63;9.63;;;;;;;;;;4993059;28;20466;-88
2022/11/08 13:43:20;;;;;;;9.40;8.60;;;;;;;;;;4992676;28;20053;-88
2022/11/08 13:45:49;;;;;;;11.73;10.52;;;;;;;;;;5011456;28;20054;-88
2022/11/08 13:48:33;;;;;;;11.75;9.15;;;;;;;;;;5012707;28;20042;-88
2022/11/08 13:51:15;;;;;;;9.40;8.65;;;;;;;;;;5012420;28;20058;-88
2022/11/08 13:53:45;;;;;;;11.25;10.18;;;;;;;;;;5010577;28;20116;-88
2022/11/08 13:56:33;;;;;;;11.38;10.20;;;;;;;;;;5011247;28;20038;-88
2022/11/08 13:58:59;;;;;;;9.85;8.77;;;;;;;;;;5030771;28;20049;-88
2022/11/08 14:01:44;;;;;;;9.85;8.35;;;;;;;;;;5034287;28;20057;-88
2022/11/08 14:04:24;;;;;;;8.15;7.43;;;;;;;;;;5038897;28;20053;-88
2022/11/08 14:06:55;;;;;;;11.90;9.15;;;;;;;;;;5054257;28;20130;-88
2022/11/08 14:09:24;;;;;;;10.52;9.52;;;;;;;;;;5053696;28;20091;-88
2022/11/08 14:11:58;;;;;;;11.88;9.23;;;;;;;;;;5053813;28;20056;-88
2022/11/08 14:14:38;;;;;;;10.10;9.15;;;;;;;;;;5053818;28;20554;-88
2022/11/08 14:17:26;;;;;;;10.43;9.40;;;;;;;;;;5054369;28;20107;-88
2022/11/08 14:19:56;;;;;;;9.55;8.60;;;;;;;;;;5053843;28;20048;-88
2022/11/08 14:22:23;;;;;;;9.50;8.73;;;;;;;;;;5054489;28;20096;-88
2022/11/08 14:24:51;;;;;;;10.80;9.95;;;;;;;;;;5045221;28;20096;-89
2022/11/08 14:27:32;;;;;;;12.20;10.95;;;;;;;;;;5034001;28;20459;-88
2022/11/08 14:30:00;;;;;;;10.40;9.38;;;;;;;;;;5043584;28;20427;-88
2022/11/08 14:32:26;;;;;;;7.32;6.63;;;;;;;;;;5054057;28;20131;-88
2022/11/08 14:35:09;;;;;;;6.78;6.25;;;;;;;;;;5053209;28;20106;-88
2022/11/08 14:37:36;;;;;;;10.50;9.65;;;;;;;;;;5053628;28;20114;-88
2022/11/08 14:40:04;;;;;;;10.50;9.57;;;;;;;;;;5053383;28;20045;-88
2022/11/08 14:42:30;;;;;;;10.25;9.25;;;;;;;;;;5054807;28;20052;-88
2022/11/08 14:44:57;;;;;;;11.40;10.35;;;;;;;;;;5053214;28;20098;-88
2022/11/08 14:47:25;;;;;;;15.82;8.63;;;;;;;;;;5050170;28;20065;-88
2022/11/08 14:49:51;;;;;;;11.38;7.78;;;;;;;;;;5033759;28;20112;-88
2022/11/08 14:52:21;;;;;;;7.22;6.63;;;;;;;;;;5033605;28;20046;-88
2022/11/08 14:54:48;;;;;;;9.48;8.55;;;;;;;;;;5033251;28;20045;-88
2022/11/08 14:57:27;;;;;;;8.70;8.10;;;;;;;;;;5033363;28;20053;-88
2022/11/08 14:59:54;;;;;;;9.80;8.95;;;;;;;;;;5033248;28;20045;-88
2022/11/08 15:02:21;;;;;;;8.68;7.85;;;;;;;;;;5033169;28;20112;-88
2022/11/08 15:04:47;;;;;;;8.23;7.47;;;;;;;;;;5033434;28;20050;-88
2022/11/08 15:07:15;;;;;;;8.82;8.02;;;;;;;;;;5032847;28;20084;-89
2022/11/08 15:09:43;;;;;;;8.60;7.18;;;;;;;;;;5033153;28;20041;-89